sensor_id;sensor_type;location;lat;lon;timestamp;P1;durP1;ratioP1;P2;durP2;ratioP2
11139;SDS011;5624;49.388;11.350;2023-03-19T00:00:03;9.50;;;5.40;;
11139;SDS011;5624;49.388;11.350;2023-03-19T00:02:34;9.37;;;5.53;;
11139;SDS011;5624;49.388;11.350;2023-03-19T00:05:00;10.83;;;6.00;;
11139;SDS011;5624;49.388;11.350;2023-03-19T00:07:26;8.67;;;5.20;;
11139;SDS011;5624;49.388;11.350;2023-03-19T00:09:52;7.23;;;5.57;;
11139;SDS011;5624;49.388;11.350;2023-03-19T00:12:18;9.97;;;5.47;;
11139;SDS011;5624;49.388;11.350;2023-03-19T00:14:43;10.80;;;5.60;;
11139;SDS011;5624;49.388;11.350;2023-03-19T00:17:09;8.53;;;5.23;;
11139;SDS011;5624;49.388;11.350;2023-03-19T00:19:35;8.53;;;5.87;;
11139;SDS011;5624;49.388;11.350;2023-03-19T00:22:01;11.83;;;5.70;;
11139;SDS011;5624;49.388;11.350;2023-03-19T00:24:26;8.77;;;5.50;;
11139;SDS011;5624;49.388;11.350;2023-03-19T00:26:53;9.27;;;5.37;;
11139;SDS011;5624;49.388;11.350;2023-03-19T00:29:19;9.43;;;5.40;;
11139;SDS011;5624;49.388;11.350;2023-03-19T00:31:44;9.67;;;5.53;;
11139;SDS011;5624;49.388;11.350;2023-03-19T00:34:10;11.90;;;5.77;;
11139;SDS011;5624;49.388;11.350;2023-03-19T00:36:37;8.53;;;5.17;;
11139;SDS011;5624;49.388;11.350;2023-03-19T00:39:03;13.77;;;5.37;;
11139;SDS011;5624;49.388;11.350;2023-03-19T00:41:29;8.53;;;5.37;;
11139;SDS011;5624;49.388;11.350;2023-03-19T00:43:55;9.47;;;5.93;;
11139;SDS011;5624;49.388;11.350;2023-03-19T00:46:21;9.97;;;7.13;;
11139;SDS011;5624;49.388;11.350;2023-03-19T00:48:48;9.57;;;5.87;;
11139;SDS011;5624;49.388;11.350;2023-03-19T00:51:17;10.37;;;5.70;;
11139;SDS011;5624;49.388;11.350;2023-03-19T00:53:43;10.87;;;5.93;;
11139;SDS011;5624;49.388;11.350;2023-03-19T00:56:10;10.87;;;5.83;;
11139;SDS011;5624;49.388;11.350;2023-03-19T00:58:37;8.57;;;5.70;;
11139;SDS011;5624;49.388;11.350;2023-03-19T01:01:05;11.63;;;5.83;;
11139;SDS011;5624;49.388;11.350;2023-03-19T01:03:35;9.43;;;5.60;;
11139;SDS011;5624;49.388;11.350;2023-03-19T01:06:01;9.57;;;5.70;;
11139;SDS011;5624;49.388;11.350;2023-03-19T01:08:26;10.70;;;6.00;;
11139;SDS011;5624;49.388;11.350;2023-03-19T01:10:52;10.97;;;5.80;;
11139;SDS011;5624;49.388;11.350;2023-03-19T01:13:17;9.13;;;6.30;;
11139;SDS011;5624;49.388;11.350;2023-03-19T01:15:43;10.30;;;6.20;;
11139;SDS011;5624;49.388;11.350;2023-03-19T01:18:09;13.07;;;5.93;;
11139;SDS011;5624;49.388;11.350;2023-03-19T01:20:36;10.33;;;6.47;;
11139;SDS011;5624;49.388;11.350;2023-03-19T01:23:04;9.70;;;5.90;;
11139;SDS011;5624;49.388;11.350;2023-03-19T01:25:30;8.67;;;5.50;;
11139;SDS011;5624;49.388;11.350;2023-03-19T01:27:56;8.87;;;5.17;;
11139;SDS011;5624;49.388;11.350;2023-03-19T01:30:22;8.60;;;5.80;;
11139;SDS011;5624;49.388;11.350;2023-03-19T01:32:47;9.87;;;6.37;;
11139;SDS011;5624;49.388;11.350;2023-03-19T01:35:13;11.27;;;6.07;;
11139;SDS011;5624;49.388;11.350;2023-03-19T01:37:39;9.00;;;5.77;;
11139;SDS011;5624;49.388;11.350;2023-03-19T01:40:04;8.40;;;5.53;;
11139;SDS011;5624;49.388;11.350;2023-03-19T01:42:31;10.13;;;5.87;;
11139;SDS011;5624;49.388;11.350;2023-03-19T01:44:57;10.50;;;5.70;;
11139;SDS011;5624;49.388;11.350;2023-03-19T01:47:27;10.33;;;6.33;;
11139;SDS011;5624;49.388;11.350;2023-03-19T01:49:58;10.93;;;6.27;;
11139;SDS011;5624;49.388;11.350;2023-03-19T01:52:25;9.70;;;5.63;;
11139;SDS011;5624;49.388;11.350;2023-03-19T01:54:55;8.40;;;5.03;;
11139;SDS011;5624;49.388;11.350;2023-03-19T01:57:23;8.77;;;5.80;;
11139;SDS011;5624;49.388;11.350;2023-03-19T01:59:50;10.30;;;5.40;;
11139;SDS011;5624;49.388;11.350;2023-03-19T02:02:25;10.23;;;6.37;;
11139;SDS011;5624;49.388;11.350;2023-03-19T02:04:52;9.10;;;6.00;;
11139;SDS011;5624;49.388;11.350;2023-03-19T02:07:24;7.67;;;5.30;;
11139;SDS011;5624;49.388;11.350;2023-03-19T02:09:50;10.67;;;6.00;;
11139;SDS011;5624;49.388;11.350;2023-03-19T02:12:16;10.20;;;5.97;;
11139;SDS011;5624;49.388;11.350;2023-03-19T02:14:42;10.17;;;5.53;;
11139;SDS011;5624;49.388;11.350;2023-03-19T02:17:07;6.83;;;5.67;;
11139;SDS011;5624;49.388;11.350;2023-03-19T02:22:02;7.83;;;5.40;;
11139;SDS011;5624;49.388;11.350;2023-03-19T02:24:33;9.67;;;6.03;;
11139;SDS011;5624;49.388;11.350;2023-03-19T02:27:03;8.73;;;5.93;;
11139;SDS011;5624;49.388;11.350;2023-03-19T02:29:32;9.47;;;6.33;;
11139;SDS011;5624;49.388;11.350;2023-03-19T02:31:57;9.40;;;6.07;;
11139;SDS011;5624;49.388;11.350;2023-03-19T02:36:59;9.70;;;6.13;;
11139;SDS011;5624;49.388;11.350;2023-03-19T02:39:38;10.00;;;5.80;;
11139;SDS011;5624;49.388;11.350;2023-03-19T02:42:07;9.40;;;6.27;;
11139;SDS011;5624;49.388;11.350;2023-03-19T02:44:35;7.90;;;5.90;;
11139;SDS011;5624;49.388;11.350;2023-03-19T02:47:01;10.30;;;6.80;;
11139;SDS011;5624;49.388;11.350;2023-03-19T02:49:27;9.90;;;6.70;;
11139;SDS011;5624;49.388;11.350;2023-03-19T02:51:53;9.43;;;6.10;;
11139;SDS011;5624;49.388;11.350;2023-03-19T02:54:19;10.20;;;6.57;;
11139;SDS011;5624;49.388;11.350;2023-03-19T02:56:44;10.77;;;6.53;;
11139;SDS011;5624;49.388;11.350;2023-03-19T02:59:10;10.40;;;6.20;;
11139;SDS011;5624;49.388;11.350;2023-03-19T03:01:36;9.47;;;6.50;;
11139;SDS011;5624;49.388;11.350;2023-03-19T03:04:01;8.80;;;6.30;;
11139;SDS011;5624;49.388;11.350;2023-03-19T03:06:28;12.37;;;6.77;;
11139;SDS011;5624;49.388;11.350;2023-03-19T03:08:54;9.67;;;6.27;;
11139;SDS011;5624;49.388;11.350;2023-03-19T03:11:20;9.30;;;7.40;;
11139;SDS011;5624;49.388;11.350;2023-03-19T03:13:46;9.83;;;6.43;;
11139;SDS011;5624;49.388;11.350;2023-03-19T03:16:12;8.40;;;5.67;;
11139;SDS011;5624;49.388;11.350;2023-03-19T03:18:37;10.60;;;6.73;;
11139;SDS011;5624;49.388;11.350;2023-03-19T03:21:03;8.77;;;5.80;;
11139;SDS011;5624;49.388;11.350;2023-03-19T03:23:29;9.60;;;6.17;;
11139;SDS011;5624;49.388;11.350;2023-03-19T03:25:54;10.03;;;6.47;;
11139;SDS011;5624;49.388;11.350;2023-03-19T03:28:20;10.17;;;6.40;;
11139;SDS011;5624;49.388;11.350;2023-03-19T03:30:45;8.23;;;5.70;;
11139;SDS011;5624;49.388;11.350;2023-03-19T03:33:11;8.13;;;5.90;;
11139;SDS011;5624;49.388;11.350;2023-03-19T03:35:37;10.93;;;5.97;;
11139;SDS011;5624;49.388;11.350;2023-03-19T03:38:03;9.10;;;6.60;;
11139;SDS011;5624;49.388;11.350;2023-03-19T03:40:29;9.60;;;6.30;;
11139;SDS011;5624;49.388;11.350;2023-03-19T03:42:54;8.27;;;5.93;;
11139;SDS011;5624;49.388;11.350;2023-03-19T03:45:20;10.87;;;6.73;;
11139;SDS011;5624;49.388;11.350;2023-03-19T03:47:46;11.20;;;6.23;;
11139;SDS011;5624;49.388;11.350;2023-03-19T03:50:11;12.30;;;7.00;;
11139;SDS011;5624;49.388;11.350;2023-03-19T03:52:38;7.90;;;5.27;;
11139;SDS011;5624;49.388;11.350;2023-03-19T03:55:04;11.37;;;6.57;;
11139;SDS011;5624;49.388;11.350;2023-03-19T03:57:29;11.13;;;6.37;;
11139;SDS011;5624;49.388;11.350;2023-03-19T03:59:55;10.27;;;6.33;;
11139;SDS011;5624;49.388;11.350;2023-03-19T04:02:21;9.47;;;5.80;;
11139;SDS011;5624;49.388;11.350;2023-03-19T04:04:46;9.57;;;6.13;;
11139;SDS011;5624;49.388;11.350;2023-03-19T04:07:12;11.13;;;6.33;;
11139;SDS011;5624;49.388;11.350;2023-03-19T04:09:38;10.70;;;6.00;;
11139;SDS011;5624;49.388;11.350;2023-03-19T04:12:03;8.53;;;5.93;;
11139;SDS011;5624;49.388;11.350;2023-03-19T04:14:29;9.03;;;6.60;;
11139;SDS011;5624;49.388;11.350;2023-03-19T04:16:55;11.73;;;6.20;;
11139;SDS011;5624;49.388;11.350;2023-03-19T04:19:21;11.73;;;7.10;;
11139;SDS011;5624;49.388;11.350;2023-03-19T04:21:46;11.20;;;6.50;;
11139;SDS011;5624;49.388;11.350;2023-03-19T04:24:12;8.47;;;6.20;;
11139;SDS011;5624;49.388;11.350;2023-03-19T04:26:38;8.70;;;6.27;;
11139;SDS011;5624;49.388;11.350;2023-03-19T04:29:04;10.73;;;6.80;;
11139;SDS011;5624;49.388;11.350;2023-03-19T04:31:30;8.60;;;6.07;;
11139;SDS011;5624;49.388;11.350;2023-03-19T04:33:55;9.83;;;6.57;;
11139;SDS011;5624;49.388;11.350;2023-03-19T04:36:21;12.23;;;6.53;;
11139;SDS011;5624;49.388;11.350;2023-03-19T04:38:47;13.20;;;6.97;;
11139;SDS011;5624;49.388;11.350;2023-03-19T04:41:13;9.23;;;6.17;;
11139;SDS011;5624;49.388;11.350;2023-03-19T04:43:42;9.70;;;6.63;;
11139;SDS011;5624;49.388;11.350;2023-03-19T04:46:07;13.27;;;6.63;;
11139;SDS011;5624;49.388;11.350;2023-03-19T04:48:33;11.17;;;7.10;;
11139;SDS011;5624;49.388;11.350;2023-03-19T04:51:00;10.70;;;6.60;;
11139;SDS011;5624;49.388;11.350;2023-03-19T04:53:27;10.80;;;6.93;;
11139;SDS011;5624;49.388;11.350;2023-03-19T04:55:53;8.90;;;6.90;;
11139;SDS011;5624;49.388;11.350;2023-03-19T04:58:19;10.80;;;6.83;;
11139;SDS011;5624;49.388;11.350;2023-03-19T05:00:45;9.43;;;7.23;;
11139;SDS011;5624;49.388;11.350;2023-03-19T05:03:12;10.10;;;6.13;;
11139;SDS011;5624;49.388;11.350;2023-03-19T05:05:40;13.53;;;6.63;;
11139;SDS011;5624;49.388;11.350;2023-03-19T05:08:07;11.00;;;6.57;;
11139;SDS011;5624;49.388;11.350;2023-03-19T05:10:33;8.80;;;6.47;;
11139;SDS011;5624;49.388;11.350;2023-03-19T05:13:00;10.20;;;6.53;;
11139;SDS011;5624;49.388;11.350;2023-03-19T05:15:26;9.73;;;6.03;;
11139;SDS011;5624;49.388;11.350;2023-03-19T05:17:51;11.67;;;6.83;;
11139;SDS011;5624;49.388;11.350;2023-03-19T05:20:17;14.10;;;7.20;;
11139;SDS011;5624;49.388;11.350;2023-03-19T05:22:43;10.60;;;6.67;;
11139;SDS011;5624;49.388;11.350;2023-03-19T05:25:10;9.40;;;6.70;;
11139;SDS011;5624;49.388;11.350;2023-03-19T05:27:37;9.47;;;5.90;;
11139;SDS011;5624;49.388;11.350;2023-03-19T05:30:03;9.17;;;6.97;;
11139;SDS011;5624;49.388;11.350;2023-03-19T05:32:29;11.63;;;7.07;;
11139;SDS011;5624;49.388;11.350;2023-03-19T05:34:55;12.13;;;6.47;;
11139;SDS011;5624;49.388;11.350;2023-03-19T05:37:22;9.17;;;6.40;;
11139;SDS011;5624;49.388;11.350;2023-03-19T05:39:48;12.97;;;7.17;;
11139;SDS011;5624;49.388;11.350;2023-03-19T05:42:14;11.67;;;7.33;;
11139;SDS011;5624;49.388;11.350;2023-03-19T05:44:40;9.53;;;6.73;;
11139;SDS011;5624;49.388;11.350;2023-03-19T05:47:06;9.30;;;6.30;;
11139;SDS011;5624;49.388;11.350;2023-03-19T05:49:32;9.20;;;6.30;;
11139;SDS011;5624;49.388;11.350;2023-03-19T05:51:58;10.20;;;6.63;;
11139;SDS011;5624;49.388;11.350;2023-03-19T05:54:24;11.60;;;6.83;;
11139;SDS011;5624;49.388;11.350;2023-03-19T05:56:49;9.30;;;6.80;;
11139;SDS011;5624;49.388;11.350;2023-03-19T05:59:15;11.30;;;6.90;;
11139;SDS011;5624;49.388;11.350;2023-03-19T06:01:41;9.30;;;6.47;;
11139;SDS011;5624;49.388;11.350;2023-03-19T06:04:06;9.63;;;6.27;;
11139;SDS011;5624;49.388;11.350;2023-03-19T06:06:32;10.57;;;6.53;;
11139;SDS011;5624;49.388;11.350;2023-03-19T06:08:58;9.67;;;7.23;;
11139;SDS011;5624;49.388;11.350;2023-03-19T06:11:23;12.83;;;7.30;;
11139;SDS011;5624;49.388;11.350;2023-03-19T06:13:49;10.30;;;7.27;;
11139;SDS011;5624;49.388;11.350;2023-03-19T06:16:14;9.80;;;6.87;;
11139;SDS011;5624;49.388;11.350;2023-03-19T06:18:41;9.30;;;7.53;;
11139;SDS011;5624;49.388;11.350;2023-03-19T06:21:06;13.33;;;7.97;;
11139;SDS011;5624;49.388;11.350;2023-03-19T06:23:32;10.63;;;6.93;;
11139;SDS011;5624;49.388;11.350;2023-03-19T06:25:57;10.40;;;6.60;;
11139;SDS011;5624;49.388;11.350;2023-03-19T06:28:23;9.17;;;6.27;;
11139;SDS011;5624;49.388;11.350;2023-03-19T06:30:49;11.67;;;7.03;;
11139;SDS011;5624;49.388;11.350;2023-03-19T06:33:14;14.33;;;7.73;;
11139;SDS011;5624;49.388;11.350;2023-03-19T06:35:40;9.87;;;7.20;;
11139;SDS011;5624;49.388;11.350;2023-03-19T06:38:06;10.43;;;6.83;;
11139;SDS011;5624;49.388;11.350;2023-03-19T06:40:31;9.93;;;6.97;;
11139;SDS011;5624;49.388;11.350;2023-03-19T06:42:57;11.13;;;7.33;;
11139;SDS011;5624;49.388;11.350;2023-03-19T06:45:23;12.97;;;7.60;;
11139;SDS011;5624;49.388;11.350;2023-03-19T06:47:49;8.73;;;6.30;;
11139;SDS011;5624;49.388;11.350;2023-03-19T06:50:15;10.83;;;7.07;;
11139;SDS011;5624;49.388;11.350;2023-03-19T06:52:42;12.83;;;7.27;;
11139;SDS011;5624;49.388;11.350;2023-03-19T06:55:08;10.90;;;6.77;;
11139;SDS011;5624;49.388;11.350;2023-03-19T06:57:34;10.47;;;6.70;;
11139;SDS011;5624;49.388;11.350;2023-03-19T07:00:00;10.63;;;7.23;;
11139;SDS011;5624;49.388;11.350;2023-03-19T07:02:26;8.60;;;6.70;;
11139;SDS011;5624;49.388;11.350;2023-03-19T07:04:51;9.87;;;7.77;;
11139;SDS011;5624;49.388;11.350;2023-03-19T07:07:18;8.87;;;6.97;;
11139;SDS011;5624;49.388;11.350;2023-03-19T07:09:44;7.33;;;6.20;;
11139;SDS011;5624;49.388;11.350;2023-03-19T07:12:09;12.20;;;6.73;;
11139;SDS011;5624;49.388;11.350;2023-03-19T07:14:35;11.90;;;8.17;;
11139;SDS011;5624;49.388;11.350;2023-03-19T07:17:01;12.87;;;8.23;;
11139;SDS011;5624;49.388;11.350;2023-03-19T07:19:27;11.67;;;7.57;;
11139;SDS011;5624;49.388;11.350;2023-03-19T07:21:52;8.90;;;7.20;;
11139;SDS011;5624;49.388;11.350;2023-03-19T07:24:18;13.23;;;8.77;;
11139;SDS011;5624;49.388;11.350;2023-03-19T07:26:43;10.30;;;7.57;;
11139;SDS011;5624;49.388;11.350;2023-03-19T07:29:10;8.17;;;7.20;;
11139;SDS011;5624;49.388;11.350;2023-03-19T07:31:36;12.00;;;6.53;;
11139;SDS011;5624;49.388;11.350;2023-03-19T07:34:02;9.73;;;6.40;;
11139;SDS011;5624;49.388;11.350;2023-03-19T07:36:28;10.93;;;6.80;;
11139;SDS011;5624;49.388;11.350;2023-03-19T07:38:53;8.63;;;6.73;;
11139;SDS011;5624;49.388;11.350;2023-03-19T07:41:19;10.93;;;6.63;;
11139;SDS011;5624;49.388;11.350;2023-03-19T07:43:48;10.17;;;6.27;;
11139;SDS011;5624;49.388;11.350;2023-03-19T07:46:13;8.30;;;6.30;;
11139;SDS011;5624;49.388;11.350;2023-03-19T07:48:39;10.13;;;7.30;;
11139;SDS011;5624;49.388;11.350;2023-03-19T07:51:05;8.30;;;6.17;;
11139;SDS011;5624;49.388;11.350;2023-03-19T07:53:31;11.17;;;6.77;;
11139;SDS011;5624;49.388;11.350;2023-03-19T07:55:57;8.63;;;5.77;;
11139;SDS011;5624;49.388;11.350;2023-03-19T07:58:23;10.77;;;6.23;;
11139;SDS011;5624;49.388;11.350;2023-03-19T08:00:48;7.43;;;5.43;;
11139;SDS011;5624;49.388;11.350;2023-03-19T08:03:14;9.37;;;5.03;;
11139;SDS011;5624;49.388;11.350;2023-03-19T08:05:40;9.90;;;5.57;;
11139;SDS011;5624;49.388;11.350;2023-03-19T08:08:06;9.00;;;5.30;;
11139;SDS011;5624;49.388;11.350;2023-03-19T08:10:31;7.00;;;4.67;;
11139;SDS011;5624;49.388;11.350;2023-03-19T08:12:57;5.27;;;4.27;;
11139;SDS011;5624;49.388;11.350;2023-03-19T08:15:22;5.90;;;4.30;;
11139;SDS011;5624;49.388;11.350;2023-03-19T08:17:48;8.07;;;4.57;;
11139;SDS011;5624;49.388;11.350;2023-03-19T08:20:24;6.13;;;4.10;;
11139;SDS011;5624;49.388;11.350;2023-03-19T08:23:07;6.47;;;4.17;;
11139;SDS011;5624;49.388;11.350;2023-03-19T08:25:34;5.80;;;4.00;;
11139;SDS011;5624;49.388;11.350;2023-03-19T08:27:59;7.93;;;4.33;;
11139;SDS011;5624;49.388;11.350;2023-03-19T08:30:25;6.60;;;4.00;;
11139;SDS011;5624;49.388;11.350;2023-03-19T08:32:51;5.50;;;3.57;;
11139;SDS011;5624;49.388;11.350;2023-03-19T08:35:17;5.93;;;4.13;;
11139;SDS011;5624;49.388;11.350;2023-03-19T08:37:43;5.77;;;3.87;;
11139;SDS011;5624;49.388;11.350;2023-03-19T08:40:08;5.90;;;4.33;;
11139;SDS011;5624;49.388;11.350;2023-03-19T08:42:34;6.33;;;3.50;;
11139;SDS011;5624;49.388;11.350;2023-03-19T08:45:02;6.83;;;3.50;;
11139;SDS011;5624;49.388;11.350;2023-03-19T08:47:28;5.73;;;3.40;;
11139;SDS011;5624;49.388;11.350;2023-03-19T08:49:54;4.10;;;2.97;;
11139;SDS011;5624;49.388;11.350;2023-03-19T08:52:20;4.60;;;3.30;;
11139;SDS011;5624;49.388;11.350;2023-03-19T08:54:45;6.17;;;3.10;;
11139;SDS011;5624;49.388;11.350;2023-03-19T08:57:11;5.00;;;3.20;;
11139;SDS011;5624;49.388;11.350;2023-03-19T08:59:37;4.70;;;3.33;;
11139;SDS011;5624;49.388;11.350;2023-03-19T09:02:02;6.80;;;3.27;;
11139;SDS011;5624;49.388;11.350;2023-03-19T09:04:28;4.00;;;3.13;;
11139;SDS011;5624;49.388;11.350;2023-03-19T09:06:54;5.63;;;3.13;;
11139;SDS011;5624;49.388;11.350;2023-03-19T09:09:20;5.43;;;3.57;;
11139;SDS011;5624;49.388;11.350;2023-03-19T09:11:48;5.77;;;3.00;;
11139;SDS011;5624;49.388;11.350;2023-03-19T09:14:14;8.43;;;3.23;;
11139;SDS011;5624;49.388;11.350;2023-03-19T09:16:41;5.00;;;3.17;;
11139;SDS011;5624;49.388;11.350;2023-03-19T09:19:07;5.97;;;3.20;;
11139;SDS011;5624;49.388;11.350;2023-03-19T09:21:33;5.90;;;3.23;;
11139;SDS011;5624;49.388;11.350;2023-03-19T09:24:02;6.07;;;3.40;;
11139;SDS011;5624;49.388;11.350;2023-03-19T09:26:28;5.97;;;3.40;;
11139;SDS011;5624;49.388;11.350;2023-03-19T09:28:54;6.40;;;3.53;;
11139;SDS011;5624;49.388;11.350;2023-03-19T09:31:20;6.00;;;3.07;;
11139;SDS011;5624;49.388;11.350;2023-03-19T09:33:45;5.47;;;3.33;;
11139;SDS011;5624;49.388;11.350;2023-03-19T09:36:11;5.20;;;3.10;;
11139;SDS011;5624;49.388;11.350;2023-03-19T09:38:37;6.40;;;3.00;;
11139;SDS011;5624;49.388;11.350;2023-03-19T09:41:06;5.10;;;3.27;;
11139;SDS011;5624;49.388;11.350;2023-03-19T09:46:15;7.67;;;4.20;;
11139;SDS011;5624;49.388;11.350;2023-03-19T09:48:46;5.10;;;3.27;;
11139;SDS011;5624;49.388;11.350;2023-03-19T09:51:20;4.67;;;3.20;;
11139;SDS011;5624;49.388;11.350;2023-03-19T09:54:06;4.77;;;3.40;;
11139;SDS011;5624;49.388;11.350;2023-03-19T09:56:41;5.37;;;3.53;;
11139;SDS011;5624;49.388;11.350;2023-03-19T09:59:07;4.80;;;3.60;;
11139;SDS011;5624;49.388;11.350;2023-03-19T10:01:33;6.40;;;3.50;;
11139;SDS011;5624;49.388;11.350;2023-03-19T10:04:05;6.20;;;3.60;;
11139;SDS011;5624;49.388;11.350;2023-03-19T10:06:43;5.53;;;3.50;;
11139;SDS011;5624;49.388;11.350;2023-03-19T10:11:38;6.33;;;3.40;;
11139;SDS011;5624;49.388;11.350;2023-03-19T10:14:11;6.50;;;3.70;;
11139;SDS011;5624;49.388;11.350;2023-03-19T10:16:45;7.20;;;4.27;;
11139;SDS011;5624;49.388;11.350;2023-03-19T10:19:16;6.63;;;3.97;;
11139;SDS011;5624;49.388;11.350;2023-03-19T10:21:54;6.20;;;4.07;;
11139;SDS011;5624;49.388;11.350;2023-03-19T10:24:26;5.67;;;4.17;;
11139;SDS011;5624;49.388;11.350;2023-03-19T10:26:58;7.40;;;4.60;;
11139;SDS011;5624;49.388;11.350;2023-03-19T10:29:26;6.30;;;3.70;;
11139;SDS011;5624;49.388;11.350;2023-03-19T10:34:44;7.37;;;4.67;;
11139;SDS011;5624;49.388;11.350;2023-03-19T10:37:18;6.23;;;3.93;;
11139;SDS011;5624;49.388;11.350;2023-03-19T10:39:54;4.83;;;3.40;;
11139;SDS011;5624;49.388;11.350;2023-03-19T10:45:44;6.67;;;3.60;;
11139;SDS011;5624;49.388;11.350;2023-03-19T10:48:19;5.40;;;3.47;;
11139;SDS011;5624;49.388;11.350;2023-03-19T10:53:27;6.53;;;4.20;;
11139;SDS011;5624;49.388;11.350;2023-03-19T10:58:41;4.33;;;2.80;;
11139;SDS011;5624;49.388;11.350;2023-03-19T11:01:20;4.00;;;2.93;;
11139;SDS011;5624;49.388;11.350;2023-03-19T11:03:49;5.90;;;3.53;;
11139;SDS011;5624;49.388;11.350;2023-03-19T11:06:26;5.70;;;3.40;;
11139;SDS011;5624;49.388;11.350;2023-03-19T11:11:42;5.13;;;3.40;;
11139;SDS011;5624;49.388;11.350;2023-03-19T11:14:15;3.93;;;3.10;;
11139;SDS011;5624;49.388;11.350;2023-03-19T11:19:29;4.93;;;3.53;;
11139;SDS011;5624;49.388;11.350;2023-03-19T11:27:58;6.00;;;3.93;;
11139;SDS011;5624;49.388;11.350;2023-03-19T11:30:25;8.00;;;3.50;;
11139;SDS011;5624;49.388;11.350;2023-03-19T11:47:29;5.13;;;2.97;;
11139;SDS011;5624;49.388;11.350;2023-03-19T11:52:40;2.87;;;2.40;;
11139;SDS011;5624;49.388;11.350;2023-03-19T11:55:24;4.25;;;2.55;;
11139;SDS011;5624;49.388;11.350;2023-03-19T12:05:59;6.60;;;4.37;;
11139;SDS011;5624;49.388;11.350;2023-03-19T12:21:51;4.65;;;2.42;;
11139;SDS011;5624;49.388;11.350;2023-03-19T12:27:19;3.75;;;2.50;;
11139;SDS011;5624;49.388;11.350;2023-03-19T12:29:58;4.68;;;2.38;;
11139;SDS011;5624;49.388;11.350;2023-03-19T12:35:33;3.55;;;2.30;;
11139;SDS011;5624;49.388;11.350;2023-03-19T12:38:11;3.25;;;1.90;;
11139;SDS011;5624;49.388;11.350;2023-03-19T12:40:44;2.72;;;2.03;;
11139;SDS011;5624;49.388;11.350;2023-03-19T12:43:27;4.82;;;2.50;;
11139;SDS011;5624;49.388;11.350;2023-03-19T12:46:00;3.72;;;2.30;;
11139;SDS011;5624;49.388;11.350;2023-03-19T12:48:41;4.45;;;2.28;;
11139;SDS011;5624;49.388;11.350;2023-03-19T12:51:18;5.32;;;2.45;;
11139;SDS011;5624;49.388;11.350;2023-03-19T12:53:52;3.85;;;2.42;;
11139;SDS011;5624;49.388;11.350;2023-03-19T12:56:42;5.35;;;2.60;;
11139;SDS011;5624;49.388;11.350;2023-03-19T12:59:35;3.10;;;2.55;;
11139;SDS011;5624;49.388;11.350;2023-03-19T13:02:19;3.85;;;2.50;;
11139;SDS011;5624;49.388;11.350;2023-03-19T13:08:00;2.65;;;2.15;;
11139;SDS011;5624;49.388;11.350;2023-03-19T13:10:38;4.25;;;2.20;;
11139;SDS011;5624;49.388;11.350;2023-03-19T13:13:48;4.77;;;2.60;;
11139;SDS011;5624;49.388;11.350;2023-03-19T13:21:36;3.50;;;2.20;;
11139;SDS011;5624;49.388;11.350;2023-03-19T13:24:07;3.73;;;2.33;;
11139;SDS011;5624;49.388;11.350;2023-03-19T13:26:43;3.42;;;2.30;;
11139;SDS011;5624;49.388;11.350;2023-03-19T13:31:49;5.50;;;2.35;;
11139;SDS011;5624;49.388;11.350;2023-03-19T13:36:45;3.28;;;2.50;;
11139;SDS011;5624;49.388;11.350;2023-03-19T13:39:18;2.95;;;2.10;;
11139;SDS011;5624;49.388;11.350;2023-03-19T13:46:59;4.53;;;2.22;;
11139;SDS011;5624;49.388;11.350;2023-03-19T13:49:28;2.95;;;1.98;;
11139;SDS011;5624;49.388;11.350;2023-03-19T13:54:38;2.67;;;1.98;;
11139;SDS011;5624;49.388;11.350;2023-03-19T13:57:10;2.90;;;2.17;;
11139;SDS011;5624;49.388;11.350;2023-03-19T13:59:43;4.70;;;2.45;;
11139;SDS011;5624;49.388;11.350;2023-03-19T14:04:50;4.32;;;3.28;;
11139;SDS011;5624;49.388;11.350;2023-03-19T14:07:18;3.42;;;2.03;;
11139;SDS011;5624;49.388;11.350;2023-03-19T14:09:50;3.80;;;2.33;;
11139;SDS011;5624;49.388;11.350;2023-03-19T14:12:30;2.72;;;1.70;;
11139;SDS011;5624;49.388;11.350;2023-03-19T14:17:35;2.92;;;1.75;;
11139;SDS011;5624;49.388;11.350;2023-03-19T14:20:21;4.93;;;2.00;;
11139;SDS011;5624;49.388;11.350;2023-03-19T14:22:54;4.32;;;1.95;;
11139;SDS011;5624;49.388;11.350;2023-03-19T14:34:12;7.80;;;2.28;;
11139;SDS011;5624;49.388;11.350;2023-03-19T14:36:56;4.18;;;2.28;;
11139;SDS011;5624;49.388;11.350;2023-03-19T14:39:29;2.20;;;1.80;;
11139;SDS011;5624;49.388;11.350;2023-03-19T14:44:47;2.28;;;1.52;;
11139;SDS011;5624;49.388;11.350;2023-03-19T14:55:35;3.30;;;1.70;;
11139;SDS011;5624;49.388;11.350;2023-03-19T14:58:02;2.88;;;1.70;;
11139;SDS011;5624;49.388;11.350;2023-03-19T15:00:36;3.35;;;1.67;;
11139;SDS011;5624;49.388;11.350;2023-03-19T15:03:19;2.05;;;1.58;;
11139;SDS011;5624;49.388;11.350;2023-03-19T15:05:48;2.37;;;1.80;;
11139;SDS011;5624;49.388;11.350;2023-03-19T15:08:15;3.80;;;2.20;;
11139;SDS011;5624;49.388;11.350;2023-03-19T15:16:33;3.92;;;2.42;;
11139;SDS011;5624;49.388;11.350;2023-03-19T15:19:09;2.00;;;1.80;;
11139;SDS011;5624;49.388;11.350;2023-03-19T15:21:36;2.95;;;2.40;;
11139;SDS011;5624;49.388;11.350;2023-03-19T15:24:02;2.70;;;2.00;;
11139;SDS011;5624;49.388;11.350;2023-03-19T15:26:33;10.60;;;6.95;;
11139;SDS011;5624;49.388;11.350;2023-03-19T15:29:00;12.35;;;8.10;;
11139;SDS011;5624;49.388;11.350;2023-03-19T15:31:39;8.85;;;4.70;;
11139;SDS011;5624;49.388;11.350;2023-03-19T15:34:43;5.63;;;2.53;;
11139;SDS011;5624;49.388;11.350;2023-03-19T15:37:04;3.47;;;1.90;;
11139;SDS011;5624;49.388;11.350;2023-03-19T15:39:43;2.50;;;1.50;;
11139;SDS011;5624;49.388;11.350;2023-03-19T15:42:13;1.73;;;1.60;;
11139;SDS011;5624;49.388;11.350;2023-03-19T15:44:42;3.03;;;1.55;;
11139;SDS011;5624;49.388;11.350;2023-03-19T15:47:15;2.97;;;1.67;;
11139;SDS011;5624;49.388;11.350;2023-03-19T15:49:49;2.80;;;1.97;;
11139;SDS011;5624;49.388;11.350;2023-03-19T15:52:20;2.38;;;1.95;;
11139;SDS011;5624;49.388;11.350;2023-03-19T15:54:52;2.92;;;2.25;;
11139;SDS011;5624;49.388;11.350;2023-03-19T15:57:19;3.58;;;1.95;;
11139;SDS011;5624;49.388;11.350;2023-03-19T15:59:49;3.47;;;2.40;;
11139;SDS011;5624;49.388;11.350;2023-03-19T16:02:23;4.75;;;3.35;;
11139;SDS011;5624;49.388;11.350;2023-03-19T16:04:51;3.33;;;2.10;;
11139;SDS011;5624;49.388;11.350;2023-03-19T16:07:22;4.07;;;2.50;;
11139;SDS011;5624;49.388;11.350;2023-03-19T16:09:59;3.60;;;2.40;;
11139;SDS011;5624;49.388;11.350;2023-03-19T16:12:47;4.43;;;2.20;;
11139;SDS011;5624;49.388;11.350;2023-03-19T16:15:23;3.17;;;2.10;;
11139;SDS011;5624;49.388;11.350;2023-03-19T16:17:52;5.40;;;2.70;;
11139;SDS011;5624;49.388;11.350;2023-03-19T16:20:18;5.27;;;3.20;;
11139;SDS011;5624;49.388;11.350;2023-03-19T16:22:47;4.97;;;2.77;;
11139;SDS011;5624;49.388;11.350;2023-03-19T16:25:19;5.93;;;2.77;;
11139;SDS011;5624;49.388;11.350;2023-03-19T16:27:52;5.13;;;2.87;;
11139;SDS011;5624;49.388;11.350;2023-03-19T16:30:19;5.43;;;3.23;;
11139;SDS011;5624;49.388;11.350;2023-03-19T16:32:56;6.33;;;3.27;;
11139;SDS011;5624;49.388;11.350;2023-03-19T16:35:26;6.37;;;3.50;;
11139;SDS011;5624;49.388;11.350;2023-03-19T16:38:13;4.50;;;2.90;;
11139;SDS011;5624;49.388;11.350;2023-03-19T16:40:42;7.13;;;3.60;;
11139;SDS011;5624;49.388;11.350;2023-03-19T16:43:19;5.00;;;3.17;;
11139;SDS011;5624;49.388;11.350;2023-03-19T16:45:50;6.67;;;3.70;;
11139;SDS011;5624;49.388;11.350;2023-03-19T16:48:27;6.17;;;4.33;;
11139;SDS011;5624;49.388;11.350;2023-03-19T16:50:52;5.47;;;4.17;;
11139;SDS011;5624;49.388;11.350;2023-03-19T16:55:49;6.83;;;4.00;;
11139;SDS011;5624;49.388;11.350;2023-03-19T16:58:25;5.70;;;3.93;;
11139;SDS011;5624;49.388;11.350;2023-03-19T17:01:00;4.10;;;3.40;;
11139;SDS011;5624;49.388;11.350;2023-03-19T17:03:26;5.43;;;3.60;;